Time;durP1;ratioP1;P1;durP2;ratioP2;P2;SDS_P1;SDS_P2;PMS_P1;PMS_P2;Temp;Humidity;BMP_temperature;BMP_pressure;BME280_temperature;BME280_humidity;BME280_pressure;Samples;Min_cycle;Max_cycle;Signal;HPM_P1;HPM_P2
2023/01/21 00:00:37;;;;;;;9.90;7.13;;;0.90;99.90;;;;;;5069893;28;20214;-74
2023/01/21 00:03:06;;;;;;;10.20;7.23;;;0.90;99.90;;;;;;5069640;28;20286;-74
2023/01/21 00:05:33;;;;;;;8.97;6.70;;;0.90;99.90;;;;;;5069302;28;20642;-74
2023/01/21 00:07:59;;;;;;;12.03;6.73;;;0.90;99.90;;;;;;5069380;28;20233;-74
2023/01/21 00:10:27;;;;;;;9.13;6.10;;;0.90;99.90;;;;;;5069257;28;20203;-74
2023/01/21 00:12:53;;;;;;;9.60;6.93;;;0.90;99.90;;;;;;5069464;28;20307;-74
2023/01/21 00:15:20;;;;;;;12.50;6.80;;;0.90;99.90;;;;;;5070196;28;20199;-74
2023/01/21 00:17:47;;;;;;;9.80;6.43;;;0.90;99.90;;;;;;5050594;28;20201;-72
2023/01/21 00:20:16;;;;;;;12.37;5.93;;;0.90;99.90;;;;;;5049031;28;20291;-72
2023/01/21 00:22:43;;;;;;;8.27;5.80;;;0.90;99.90;;;;;;5059888;28;20231;-72
2023/01/21 00:25:10;;;;;;;6.90;5.47;;;0.90;99.90;;;;;;5069217;28;20298;-73
2023/01/21 00:27:37;;;;;;;8.07;5.63;;;0.90;99.90;;;;;;5069088;28;20313;-72
2023/01/21 00:30:04;;;;;;;7.93;5.90;;;0.90;99.90;;;;;;5069522;28;20291;-74
2023/01/21 00:32:31;;;;;;;9.33;6.03;;;0.90;99.90;;;;;;5068070;28;20282;-74
2023/01/21 00:34:58;;;;;;;9.23;6.00;;;0.90;99.90;;;;;;5069200;28;20207;-74
2023/01/21 00:37:26;;;;;;;8.37;5.50;;;0.90;99.90;;;;;;5068982;28;20208;-74
2023/01/21 00:39:53;;;;;;;10.90;5.93;;;0.90;99.90;;;;;;5068849;28;20708;-74
2023/01/21 00:42:20;;;;;;;8.17;5.60;;;0.90;99.90;;;;;;5068314;28;20235;-74
2023/01/21 00:44:47;;;;;;;8.83;5.63;;;0.90;99.90;;;;;;5069098;28;20235;-74
2023/01/21 00:47:14;;;;;;;8.47;5.23;;;0.90;99.90;;;;;;5083311;28;20245;-74
2023/01/21 00:49:40;;;;;;;6.20;5.50;;;0.90;99.90;;;;;;5088005;28;20314;-74
2023/01/21 00:52:07;;;;;;;7.77;5.57;;;0.90;99.90;;;;;;5077019;28;20290;-74
2023/01/21 00:54:35;;;;;;;6.70;5.10;;;0.90;99.90;;;;;;5068884;28;20207;-74
2023/01/21 00:57:02;;;;;;;6.97;5.43;;;0.90;99.90;;;;;;5052645;28;20215;-74
2023/01/21 00:59:29;;;;;;;6.00;5.40;;;0.90;99.90;;;;;;5063561;28;20257;-74
2023/01/21 01:01:56;;;;;;;5.97;5.13;;;0.90;99.90;;;;;;5067448;28;20610;-75
2023/01/21 01:04:23;;;;;;;5.37;4.57;;;0.90;99.90;;;;;;5068047;28;20279;-75
2023/01/21 01:06:50;;;;;;;7.47;5.53;;;0.90;99.90;;;;;;5067998;28;20298;-75
2023/01/21 01:09:17;;;;;;;8.67;5.60;;;0.90;99.90;;;;;;5068436;28;20209;-75
2023/01/21 01:11:45;;;;;;;5.57;4.90;;;0.90;99.90;;;;;;5060777;28;20312;-75
2023/01/21 01:14:12;;;;;;;8.00;5.37;;;0.90;99.90;;;;;;5048602;28;20204;-75
2023/01/21 01:16:41;;;;;;;6.27;4.83;;;0.90;99.90;;;;;;5048210;28;20247;-75
2023/01/21 01:19:07;;;;;;;7.13;5.10;;;0.90;99.90;;;;;;5060071;28;20806;-75
2023/01/21 01:21:34;;;;;;;5.80;5.07;;;0.90;99.90;;;;;;5081549;28;20625;-74
2023/01/21 01:24:02;;;;;;;6.53;5.00;;;0.90;99.90;;;;;;5068318;28;20286;-74
2023/01/21 01:26:29;;;;;;;5.60;5.00;;;0.90;99.90;;;;;;5068183;28;20290;-74
2023/01/21 01:28:57;;;;;;;6.63;5.30;;;0.90;99.90;;;;;;5068264;28;20203;-74
2023/01/21 01:31:24;;;;;;;7.53;6.10;;;0.90;99.90;;;;;;5063986;28;20299;-74
2023/01/21 01:33:51;;;;;;;8.53;5.27;;;0.90;99.90;;;;;;5047593;28;20295;-74
2023/01/21 01:36:19;;;;;;;7.27;5.50;;;0.90;99.90;;;;;;5047918;28;20385;-75
2023/01/21 01:38:47;;;;;;;8.30;5.60;;;0.90;99.90;;;;;;5047833;28;20310;-74
2023/01/21 01:41:16;;;;;;;10.23;5.43;;;0.90;99.90;;;;;;5048396;28;20215;-74
2023/01/21 01:43:53;;;;;;;6.57;5.13;;;0.90;99.90;;;;;;5047446;28;20298;-74
2023/01/21 01:46:22;;;;;;;6.47;4.97;;;0.90;99.90;;;;;;5060463;28;20210;-75
2023/01/21 01:48:54;;;;;;;7.73;5.60;;;1.00;99.90;;;;;;5087345;28;20413;-74
2023/01/21 01:51:26;;;;;;;7.90;5.10;;;1.00;99.90;;;;;;5081118;28;20726;-75
2023/01/21 01:53:53;;;;;;;7.20;5.23;;;1.00;99.90;;;;;;5047563;28;20579;-74
2023/01/21 01:56:21;;;;;;;7.07;5.07;;;1.00;99.90;;;;;;5057583;28;20269;-74
2023/01/21 01:58:48;;;;;;;5.63;4.73;;;1.00;99.90;;;;;;5047699;28;20234;-74
2023/01/21 02:01:15;;;;;;;6.67;5.23;;;1.00;99.90;;;;;;5066660;28;20305;-74
2023/01/21 02:03:49;;;;;;;5.43;4.67;;;1.00;99.90;;;;;;5065283;28;20298;-74
2023/01/21 02:06:18;;;;;;;6.57;5.33;;;1.00;99.90;;;;;;5067717;28;20215;-73
2023/01/21 02:08:46;;;;;;;6.23;5.20;;;1.00;99.90;;;;;;5067312;28;20218;-73
2023/01/21 02:11:14;;;;;;;6.77;5.10;;;1.00;99.90;;;;;;5060016;28;20302;-73
2023/01/21 02:13:43;;;;;;;6.30;5.10;;;1.00;99.90;;;;;;5047145;28;20218;-72
2023/01/21 02:16:26;;;;;;;6.83;5.27;;;1.00;99.90;;;;;;5064620;28;20325;-72
2023/01/21 02:19:06;;;;;;;5.57;4.60;;;0.90;99.90;;;;;;5087044;28;20214;-72
2023/01/21 02:21:54;;;;;;;5.30;4.53;;;0.90;99.90;;;;;;5069451;28;20242;-72
2023/01/21 02:25:06;;;;;;;8.97;5.17;;;0.90;99.90;;;;;;5047150;28;20200;-72
2023/01/21 02:27:44;;;;;;;5.40;4.90;;;0.90;99.90;;;;;;5014393;28;20302;-72
2023/01/21 02:30:30;;;;;;;7.27;5.50;;;1.00;99.90;;;;;;5047489;28;20307;-72
2023/01/21 02:33:45;;;;;;;6.90;5.00;;;1.00;99.90;;;;;;5046993;28;20195;-73
2023/01/21 02:36:35;;;;;;;8.33;6.63;;;1.00;99.90;;;;;;5037408;28;20200;-72
2023/01/21 02:39:12;;;;;;;9.63;6.57;;;1.00;99.90;;;;;;5047154;28;20267;-72
2023/01/21 02:41:53;;;;;;;7.63;6.50;;;1.00;99.90;;;;;;5055665;28;20279;-72
2023/01/21 02:44:31;;;;;;;9.77;6.70;;;1.00;99.90;;;;;;5066643;28;20665;-72
2023/01/21 02:47:04;;;;;;;7.80;6.10;;;1.00;99.90;;;;;;5079418;28;20666;-72
2023/01/21 02:49:35;;;;;;;8.80;6.13;;;1.00;99.90;;;;;;5086581;28;20245;-72
2023/01/21 02:52:03;;;;;;;8.07;6.47;;;1.00;99.90;;;;;;5071820;28;20301;-73
2023/01/21 02:54:50;;;;;;;7.10;5.37;;;1.00;99.90;;;;;;5066691;28;20402;-73
2023/01/21 02:57:24;;;;;;;5.87;5.27;;;1.10;99.90;;;;;;5059484;28;20203;-72
2023/01/21 02:59:55;;;;;;;7.57;5.70;;;1.10;99.90;;;;;;5066939;28;20245;-72
2023/01/21 03:02:32;;;;;;;6.17;5.10;;;1.10;99.90;;;;;;5065816;28;20249;-72
2023/01/21 03:05:08;;;;;;;7.40;5.57;;;1.10;99.90;;;;;;5067224;28;20239;-72
2023/01/21 03:07:42;;;;;;;5.53;5.03;;;1.10;99.90;;;;;;5066835;28;20192;-72
2023/01/21 03:10:13;;;;;;;6.30;5.37;;;1.10;99.90;;;;;;5067080;28;20255;-72
2023/01/21 03:12:48;;;;;;;6.07;5.07;;;1.10;99.90;;;;;;5053481;28;22477;-73
2023/01/21 03:18:11;;;;;;;5.60;5.07;;;1.10;99.90;;;;;;5050141;28;20200;-73
2023/01/21 03:20:41;;;;;;;8.07;5.43;;;1.10;99.90;;;;;;5050352;28;20226;-73
2023/01/21 03:23:12;;;;;;;5.13;4.63;;;1.10;99.90;;;;;;5049614;28;20298;-73
2023/01/21 03:25:41;;;;;;;5.50;4.77;;;1.10;99.90;;;;;;5050044;28;20216;-73
2023/01/21 03:28:11;;;;;;;5.53;5.03;;;1.10;99.90;;;;;;5049644;28;20298;-73
2023/01/21 03:30:42;;;;;;;5.80;4.87;;;1.10;99.90;;;;;;5049829;28;20300;-73
2023/01/21 03:33:11;;;;;;;5.90;5.30;;;1.10;99.90;;;;;;5049023;28;20565;-73
2023/01/21 03:35:43;;;;;;;5.13;4.63;;;1.10;99.90;;;;;;5049859;28;20287;-73
2023/01/21 03:38:16;;;;;;;6.10;5.43;;;1.00;99.90;;;;;;5049614;28;20204;-73
2023/01/21 03:40:47;;;;;;;4.90;4.40;;;1.00;99.90;;;;;;5049857;28;20317;-73
2023/01/21 03:43:14;;;;;;;5.60;4.90;;;1.00;99.90;;;;;;5049777;28;20283;-73
2023/01/21 03:45:46;;;;;;;5.13;4.63;;;1.00;99.90;;;;;;5049782;28;20212;-73
2023/01/21 03:48:21;;;;;;;5.17;4.33;;;1.10;99.90;;;;;;5049478;28;20279;-73
2023/01/21 03:50:55;;;;;;;5.37;4.43;;;1.10;99.90;;;;;;5049924;28;20200;-73
2023/01/21 03:53:23;;;;;;;5.40;4.70;;;1.10;99.90;;;;;;5055907;28;20658;-73
2023/01/21 03:55:51;;;;;;;4.83;4.33;;;1.10;99.90;;;;;;5049575;28;20215;-73
2023/01/21 03:58:18;;;;;;;6.27;4.90;;;1.10;99.90;;;;;;5049617;28;20215;-73
2023/01/21 04:00:48;;;;;;;6.40;5.03;;;1.10;99.90;;;;;;5049819;28;20232;-74
2023/01/21 04:03:14;;;;;;;5.43;4.17;;;1.10;99.90;;;;;;5050266;28;20218;-74
2023/01/21 04:05:41;;;;;;;6.43;4.50;;;1.10;99.90;;;;;;5069731;28;20227;-74
2023/01/21 04:08:08;;;;;;;6.13;4.63;;;1.10;99.90;;;;;;5069523;28;20284;-73
2023/01/21 04:10:36;;;;;;;5.80;4.83;;;1.10;99.90;;;;;;5069156;28;20342;-73
2023/01/21 04:13:03;;;;;;;5.80;4.50;;;1.10;99.90;;;;;;5069455;28;20290;-74
2023/01/21 04:15:30;;;;;;;4.77;4.27;;;1.10;99.90;;;;;;5069160;28;20298;-73
2023/01/21 04:17:57;;;;;;;7.47;5.10;;;1.20;99.90;;;;;;5049596;28;20295;-74
2023/01/21 04:20:24;;;;;;;5.03;4.50;;;1.10;99.90;;;;;;5049463;28;20275;-74
2023/01/21 04:22:51;;;;;;;4.60;4.20;;;1.10;99.90;;;;;;5061101;28;21075;-74
2023/01/21 04:25:18;;;;;;;4.90;4.40;;;1.10;99.90;;;;;;5068632;28;20626;-74
2023/01/21 04:27:46;;;;;;;4.90;4.50;;;1.10;99.90;;;;;;5069274;28;20228;-74
2023/01/21 04:30:13;;;;;;;4.13;3.83;;;1.00;99.90;;;;;;5069290;28;20213;-74
2023/01/21 04:32:40;;;;;;;4.87;4.30;;;1.00;99.90;;;;;;5068943;28;20294;-74
2023/01/21 04:35:08;;;;;;;4.57;4.10;;;1.00;99.90;;;;;;5068100;28;20666;-73
2023/01/21 04:37:35;;;;;;;5.83;4.30;;;1.00;99.90;;;;;;5068983;28;20208;-73
2023/01/21 04:40:02;;;;;;;4.50;4.10;;;1.00;99.90;;;;;;5068840;28;20263;-74
2023/01/21 04:42:28;;;;;;;4.60;4.20;;;1.00;99.90;;;;;;5068800;28;20292;-73
2023/01/21 04:44:57;;;;;;;5.33;4.53;;;0.90;99.90;;;;;;5055220;28;20208;-74
2023/01/21 04:47:23;;;;;;;4.53;4.13;;;0.90;99.90;;;;;;5064168;28;20295;-74
2023/01/21 04:49:51;;;;;;;4.50;4.10;;;0.90;99.90;;;;;;5068232;28;20271;-73
2023/01/21 04:52:18;;;;;;;4.90;4.40;;;0.90;99.90;;;;;;5051794;28;20211;-73
2023/01/21 04:54:45;;;;;;;4.70;4.30;;;1.00;99.90;;;;;;5048690;28;20310;-73
2023/01/21 04:57:12;;;;;;;4.07;3.67;;;1.00;99.90;;;;;;5048326;28;20214;-73
2023/01/21 04:59:38;;;;;;;4.90;4.20;;;1.00;99.90;;;;;;5048796;28;20327;-73
2023/01/21 05:02:07;;;;;;;4.50;4.10;;;1.00;99.90;;;;;;5048851;28;20299;-74
2023/01/21 05:04:34;;;;;;;7.20;4.20;;;1.00;99.90;;;;;;5057485;28;20823;-73
2023/01/21 05:07:00;;;;;;;5.47;4.20;;;1.00;99.90;;;;;;5068293;28;20651;-73
2023/01/21 05:09:27;;;;;;;5.60;4.13;;;1.00;99.90;;;;;;5068174;28;20302;-74
2023/01/21 05:11:54;;;;;;;4.70;4.30;;;1.10;99.90;;;;;;5067404;28;20319;-73
2023/01/21 05:14:21;;;;;;;7.30;3.83;;;0.90;99.90;;;;;;5067929;28;20282;-73
2023/01/21 05:16:48;;;;;;;5.20;4.10;;;0.90;99.90;;;;;;5068040;28;20222;-73
2023/01/21 05:19:16;;;;;;;4.10;3.80;;;0.90;99.90;;;;;;5067990;28;20250;-75
2023/01/21 05:21:43;;;;;;;4.83;4.00;;;0.90;99.90;;;;;;5065646;28;20322;-75
2023/01/21 05:24:10;;;;;;;5.43;4.20;;;0.90;99.90;;;;;;5054652;28;20558;-75
2023/01/21 05:26:37;;;;;;;5.40;4.37;;;0.90;99.90;;;;;;5068320;28;20204;-74
2023/01/21 05:29:04;;;;;;;5.17;4.37;;;0.90;99.90;;;;;;5068086;28;20322;-74
2023/01/21 05:31:31;;;;;;;4.63;3.93;;;0.90;99.90;;;;;;5068013;28;20306;-75
2023/01/21 05:33:58;;;;;;;4.40;4.00;;;0.90;99.90;;;;;;5067909;28;20243;-75
2023/01/21 05:36:26;;;;;;;5.47;4.57;;;0.90;99.90;;;;;;5067591;28;20282;-76
2023/01/21 05:38:53;;;;;;;4.17;3.87;;;0.90;99.90;;;;;;5068107;28;20237;-75
2023/01/21 05:41:20;;;;;;;5.17;4.30;;;1.00;99.90;;;;;;5087781;28;20317;-76
2023/01/21 05:43:47;;;;;;;6.87;4.40;;;0.90;99.90;;;;;;5084834;28;20206;-77
2023/01/21 05:46:14;;;;;;;5.20;4.50;;;0.90;99.90;;;;;;5074163;28;20207;-73
2023/01/21 05:48:41;;;;;;;5.30;4.30;;;0.90;99.90;;;;;;5067027;28;20325;-74
2023/01/21 05:51:07;;;;;;;4.43;4.03;;;0.90;99.90;;;;;;5067750;28;20286;-74
2023/01/21 05:53:36;;;;;;;4.83;4.37;;;0.90;99.90;;;;;;5065814;28;20733;-74
2023/01/21 05:56:03;;;;;;;5.43;4.90;;;0.90;99.90;;;;;;5047830;28;20606;-75
2023/01/21 05:58:30;;;;;;;5.47;4.23;;;0.90;99.90;;;;;;5047459;28;20632;-73
2023/01/21 06:00:57;;;;;;;4.87;4.30;;;1.00;99.90;;;;;;5057813;28;20673;-74
2023/01/21 06:03:25;;;;;;;4.43;4.07;;;1.00;99.90;;;;;;5067307;28;20204;-74
2023/01/21 06:05:53;;;;;;;6.33;4.43;;;0.90;99.90;;;;;;5066944;28;20199;-74
2023/01/21 06:08:20;;;;;;;5.10;4.60;;;1.00;99.90;;;;;;5067519;28;20203;-72
2023/01/21 06:10:48;;;;;;;5.00;4.10;;;1.00;99.90;;;;;;5067124;28;20281;-72
2023/01/21 06:13:16;;;;;;;6.40;4.57;;;1.00;99.90;;;;;;5067383;28;20291;-72
2023/01/21 06:15:43;;;;;;;5.40;4.70;;;1.00;99.90;;;;;;5065200;28;20645;-72
2023/01/21 06:18:10;;;;;;;5.57;4.97;;;1.00;99.90;;;;;;5047170;28;20295;-72
2023/01/21 06:20:37;;;;;;;5.30;4.53;;;1.10;99.90;;;;;;5047145;28;20298;-73
2023/01/21 06:23:04;;;;;;;5.43;4.43;;;1.00;99.90;;;;;;5060706;28;20290;-73
2023/01/21 06:25:32;;;;;;;7.60;4.53;;;1.10;99.90;;;;;;5049703;28;20210;-74
2023/01/21 06:28:01;;;;;;;5.83;4.80;;;1.10;99.90;;;;;;5048520;28;20295;-73
2023/01/21 06:30:28;;;;;;;5.47;4.50;;;1.10;99.90;;;;;;5047269;28;20208;-73
2023/01/21 06:32:54;;;;;;;7.67;5.40;;;1.10;99.90;;;;;;5047150;28;20208;-74
2023/01/21 06:35:21;;;;;;;6.63;5.10;;;1.10;99.90;;;;;;5062284;28;20231;-73
2023/01/21 06:37:48;;;;;;;7.90;5.23;;;1.20;99.90;;;;;;5067049;28;20959;-73
2023/01/21 06:40:15;;;;;;;7.50;5.30;;;1.10;99.90;;;;;;5067225;28;20229;-73
2023/01/21 06:42:45;;;;;;;7.10;5.23;;;1.20;99.90;;;;;;5067168;28;20314;-73
2023/01/21 06:45:14;;;;;;;8.47;5.70;;;1.20;99.90;;;;;;5046626;28;20236;-76
2023/01/21 06:47:42;;;;;;;7.10;5.43;;;1.20;99.90;;;;;;5082688;28;20235;-73
2023/01/21 06:50:11;;;;;;;6.60;5.57;;;1.20;99.90;;;;;;5090372;28;20295;-72
2023/01/21 06:52:39;;;;;;;5.73;5.20;;;1.20;99.90;;;;;;5072601;28;20330;-72
2023/01/21 06:55:07;;;;;;;7.47;5.20;;;1.20;99.90;;;;;;5053942;28;20215;-72
2023/01/21 06:57:33;;;;;;;5.70;5.10;;;1.20;99.90;;;;;;5047037;28;20204;-72
2023/01/21 07:00:00;;;;;;;9.20;5.20;;;1.20;99.90;;;;;;5046597;28;20295;-72
2023/01/21 07:02:28;;;;;;;5.90;5.30;;;1.20;99.90;;;;;;5046404;28;20204;-72
2023/01/21 07:04:55;;;;;;;5.80;5.20;;;1.20;99.90;;;;;;5046810;28;20301;-72
2023/01/21 07:07:22;;;;;;;6.47;5.37;;;1.20;99.90;;;;;;5063593;28;20574;-72
2023/01/21 07:09:49;;;;;;;8.57;5.63;;;1.20;99.90;;;;;;5066157;28;20529;-72
2023/01/21 07:12:16;;;;;;;7.80;5.90;;;1.30;99.90;;;;;;5066198;28;20211;-72
2023/01/21 07:14:43;;;;;;;7.63;6.00;;;1.30;99.90;;;;;;5057179;28;20218;-72
2023/01/21 07:17:10;;;;;;;6.17;5.47;;;1.30;99.90;;;;;;5066695;28;20311;-72
2023/01/21 07:19:38;;;;;;;8.60;6.37;;;1.30;99.90;;;;;;5065584;28;20210;-72
2023/01/21 07:22:05;;;;;;;8.07;5.77;;;1.30;99.90;;;;;;5059724;28;20319;-73
2023/01/21 07:24:32;;;;;;;8.23;6.50;;;1.30;99.90;;;;;;5045633;28;20291;-73
2023/01/21 07:26:59;;;;;;;7.30;6.53;;;1.30;99.90;;;;;;5054447;28;20203;-73
2023/01/21 07:29:26;;;;;;;7.93;6.70;;;1.30;99.90;;;;;;5065188;28;20244;-73
2023/01/21 07:31:53;;;;;;;12.07;6.43;;;1.30;99.90;;;;;;5062952;28;20235;-71
2023/01/21 07:34:20;;;;;;;9.13;7.03;;;1.30;99.90;;;;;;5046195;28;20295;-75
2023/01/21 07:36:48;;;;;;;8.43;6.27;;;1.30;99.90;;;;;;5046669;28;20247;-75
2023/01/21 07:39:15;;;;;;;8.57;6.43;;;1.30;99.90;;;;;;5060223;28;20204;-74
2023/01/21 07:41:42;;;;;;;8.57;6.97;;;1.30;99.90;;;;;;5046241;28;20327;-74
2023/01/21 07:44:09;;;;;;;9.87;6.83;;;1.30;99.90;;;;;;5049191;28;20271;-75
2023/01/21 07:46:36;;;;;;;8.27;6.83;;;1.30;99.90;;;;;;5065389;28;20203;-74
2023/01/21 07:49:03;;;;;;;8.93;6.83;;;1.40;99.90;;;;;;5069237;28;20327;-75
2023/01/21 07:51:30;;;;;;;8.20;6.90;;;1.40;99.90;;;;;;5069472;28;20280;-74
2023/01/21 07:53:58;;;;;;;8.37;7.10;;;1.40;99.90;;;;;;5070065;28;20204;-74
2023/01/21 07:56:26;;;;;;;9.77;7.33;;;1.40;99.90;;;;;;5059244;28;20196;-74
2023/01/21 07:58:52;;;;;;;8.50;6.57;;;1.40;99.90;;;;;;5068082;28;20203;-74
2023/01/21 08:01:19;;;;;;;9.30;7.10;;;1.40;99.90;;;;;;5068842;28;20231;-74
2023/01/21 08:03:46;;;;;;;9.33;7.40;;;1.40;99.90;;;;;;5069306;28;20654;-75
2023/01/21 08:06:14;;;;;;;10.07;7.30;;;1.40;99.90;;;;;;5069324;28;20645;-74
2023/01/21 08:08:41;;;;;;;9.27;7.90;;;1.40;99.90;;;;;;5068972;28;20208;-74
2023/01/21 08:11:09;;;;;;;11.50;7.23;;;1.40;99.90;;;;;;5069022;28;20238;-75
2023/01/21 08:13:36;;;;;;;10.33;7.57;;;1.40;99.90;;;;;;5063890;28;20287;-74
2023/01/21 08:16:03;;;;;;;9.20;7.40;;;1.40;99.90;;;;;;5057413;28;20290;-74
2023/01/21 08:18:30;;;;;;;10.20;8.07;;;1.40;99.90;;;;;;5088719;28;20275;-75
2023/01/21 08:20:58;;;;;;;9.53;7.63;;;1.40;99.90;;;;;;5088935;28;20219;-74
2023/01/21 08:23:25;;;;;;;11.13;7.73;;;1.50;99.90;;;;;;5070282;28;20204;-74
2023/01/21 08:25:52;;;;;;;11.23;8.00;;;1.50;99.90;;;;;;5049156;28;20236;-74
2023/01/21 08:28:20;;;;;;;9.47;7.77;;;1.50;99.90;;;;;;5053947;28;20200;-74
2023/01/21 08:30:47;;;;;;;11.20;7.97;;;1.50;99.90;;;;;;5068872;28;20203;-74
2023/01/21 08:33:14;;;;;;;8.50;7.50;;;1.50;99.90;;;;;;5067722;28;20708;-74
2023/01/21 08:35:41;;;;;;;9.17;8.17;;;1.60;99.90;;;;;;5068294;28;20261;-75
2023/01/21 08:38:08;;;;;;;9.07;7.53;;;1.60;99.90;;;;;;5068790;28;20650;-74
2023/01/21 08:40:35;;;;;;;10.20;8.03;;;1.60;99.90;;;;;;5068110;28;20207;-75
2023/01/21 08:43:06;;;;;;;11.57;7.90;;;1.60;99.90;;;;;;5051878;28;20294;-74
2023/01/21 08:45:34;;;;;;;9.47;7.63;;;1.60;99.90;;;;;;5048592;28;20193;-75
2023/01/21 08:48:03;;;;;;;8.90;7.40;;;1.60;99.90;;;;;;5048429;28;20729;-74
2023/01/21 08:50:30;;;;;;;9.73;7.70;;;1.60;99.90;;;;;;5065285;28;20250;-74
2023/01/21 08:52:57;;;;;;;8.47;7.27;;;1.60;99.90;;;;;;5068348;28;20373;-75
2023/01/21 08:55:25;;;;;;;8.50;7.50;;;1.60;99.90;;;;;;5068363;28;20213;-74
2023/01/21 08:57:53;;;;;;;9.30;7.53;;;1.70;99.90;;;;;;5068841;28;20233;-74
2023/01/21 09:00:21;;;;;;;7.87;6.93;;;1.70;99.90;;;;;;5068744;28;20679;-74
2023/01/21 09:02:49;;;;;;;8.77;7.73;;;1.70;99.90;;;;;;5067626;28;20715;-75
2023/01/21 09:05:16;;;;;;;10.00;7.93;;;1.70;99.90;;;;;;5068066;28;20294;-75
2023/01/21 09:07:43;;;;;;;8.30;7.50;;;1.70;99.90;;;;;;5068411;28;20300;-74
2023/01/21 09:10:11;;;;;;;10.03;7.63;;;1.70;99.90;;;;;;5068364;28;20314;-74
2023/01/21 09:12:39;;;;;;;12.77;8.00;;;1.80;99.90;;;;;;5055216;28;20201;-74
2023/01/21 09:15:07;;;;;;;12.37;8.10;;;1.80;99.90;;;;;;5048137;28;20299;-75
2023/01/21 09:17:34;;;;;;;9.60;8.10;;;1.80;99.90;;;;;;5081859;28;20316;-75
2023/01/21 09:20:02;;;;;;;10.70;8.43;;;1.80;99.90;;;;;;5088557;28;20236;-74
2023/01/21 09:22:29;;;;;;;9.93;8.03;;;1.80;99.90;;;;;;5069529;28;20318;-74
2023/01/21 09:24:56;;;;;;;9.57;8.57;;;1.90;99.90;;;;;;5048053;28;20310;-75
2023/01/21 09:27:26;;;;;;;11.37;7.80;;;1.90;99.90;;;;;;5048319;28;20214;-74
2023/01/21 09:29:53;;;;;;;9.13;8.17;;;1.90;99.90;;;;;;5048140;28;20219;-75
2023/01/21 09:32:20;;;;;;;10.40;8.07;;;1.90;99.90;;;;;;5054307;28;20298;-74
2023/01/21 09:34:47;;;;;;;10.33;8.07;;;1.90;99.90;;;;;;5067689;28;20230;-75
2023/01/21 09:37:15;;;;;;;10.57;7.90;;;1.90;99.90;;;;;;5067753;28;20327;-74
2023/01/21 09:39:42;;;;;;;9.30;8.20;;;2.00;99.90;;;;;;5067896;28;20302;-74
2023/01/21 09:42:17;;;;;;;10.03;7.60;;;2.00;99.90;;;;;;5067083;28;20317;-74
2023/01/21 09:44:48;;;;;;;9.33;7.20;;;2.00;99.90;;;;;;5048781;28;20227;-74
2023/01/21 09:47:21;;;;;;;11.70;7.90;;;2.00;99.90;;;;;;5076423;28;20286;-74
2023/01/21 09:49:51;;;;;;;9.20;7.67;;;2.00;99.90;;;;;;5087502;28;20325;-75
2023/01/21 09:52:26;;;;;;;10.93;8.30;;;2.10;99.90;;;;;;5085372;28;20211;-74
2023/01/21 09:54:53;;;;;;;9.67;7.93;;;2.10;99.90;;;;;;5047523;28;20228;-74
2023/01/21 09:57:56;;;;;;;9.83;8.13;;;2.10;99.90;;;;;;5047489;28;20714;-74
2023/01/21 10:00:31;;;;;;;11.37;8.47;;;2.10;99.90;;;;;;5047475;28;20283;-74
2023/01/21 10:03:17;;;;;;;10.20;8.30;;;2.10;99.90;;;;;;5047369;28;20258;-74
2023/01/21 10:06:01;;;;;;;10.80;8.17;;;2.20;99.90;;;;;;5054775;28;20194;-74
2023/01/21 10:08:43;;;;;;;11.93;8.30;;;2.20;99.90;;;;;;5087513;28;20257;-74
2023/01/21 10:11:23;;;;;;;9.70;7.93;;;2.20;99.90;;;;;;5087590;28;20281;-74
2023/01/21 10:14:03;;;;;;;13.80;8.10;;;2.20;99.90;;;;;;5057035;28;20287;-74
2023/01/21 10:16:37;;;;;;;9.90;7.73;;;2.20;99.90;;;;;;5063321;28;20744;-74
2023/01/21 10:19:06;;;;;;;11.30;8.17;;;2.30;99.90;;;;;;5087778;28;20287;-74
2023/01/21 10:21:36;;;;;;;8.57;7.57;;;2.30;99.90;;;;;;5076229;28;20769;-74
2023/01/21 10:24:12;;;;;;;9.83;7.87;;;2.30;99.90;;;;;;5051247;28;20291;-74
2023/01/21 10:26:41;;;;;;;10.90;8.10;;;2.30;99.90;;;;;;5051386;28;20290;-75
2023/01/21 10:29:16;;;;;;;10.33;8.23;;;2.30;99.90;;;;;;5062261;28;20645;-74
2023/01/21 10:31:48;;;;;;;12.13;8.03;;;2.30;99.90;;;;;;5071606;28;20557;-73
2023/01/21 10:34:19;;;;;;;10.03;7.43;;;2.30;99.90;;;;;;5070939;28;20621;-74
2023/01/21 10:36:53;;;;;;;8.47;7.57;;;2.40;99.90;;;;;;5071285;28;20284;-74
2023/01/21 10:39:33;;;;;;;8.77;7.00;;;2.40;99.90;;;;;;5070355;28;20218;-74
2023/01/21 10:42:17;;;;;;;10.73;7.80;;;2.40;99.90;;;;;;5069302;28;20249;-74
2023/01/21 10:44:50;;;;;;;9.30;7.70;;;2.40;99.90;;;;;;5051018;28;20188;-74
2023/01/21 10:47:25;;;;;;;7.93;7.23;;;2.50;99.90;;;;;;5050924;28;20237;-74
2023/01/21 10:50:03;;;;;;;9.40;7.37;;;2.40;99.90;;;;;;5050383;28;20279;-74
2023/01/21 10:52:37;;;;;;;9.83;7.97;;;2.40;99.90;;;;;;5056309;28;20199;-74
2023/01/21 10:55:20;;;;;;;11.27;8.30;;;2.50;99.90;;;;;;5070915;28;20298;-74
2023/01/21 10:57:56;;;;;;;9.00;7.30;;;2.50;99.90;;;;;;5071101;28;20188;-74
2023/01/21 11:00:28;;;;;;;8.77;7.50;;;2.60;99.90;;;;;;5070523;28;20559;-74
2023/01/21 11:03:00;;;;;;;8.17;7.23;;;2.50;99.90;;;;;;5061770;28;20220;-74
2023/01/21 11:05:28;;;;;;;9.83;7.90;;;2.60;99.90;;;;;;5053033;28;20903;-74
2023/01/21 11:07:56;;;;;;;9.03;7.53;;;2.60;99.90;;;;;;5090905;28;20363;-74
2023/01/21 11:10:26;;;;;;;10.17;7.93;;;2.60;99.90;;;;;;5090629;28;20645;-74
2023/01/21 11:12:54;;;;;;;8.73;7.07;;;2.60;99.90;;;;;;5082348;28;20295;-74
2023/01/21 11:15:23;;;;;;;8.97;7.67;;;2.60;99.90;;;;;;5070424;28;20211;-74
2023/01/21 11:17:52;;;;;;;8.70;7.50;;;2.60;99.90;;;;;;5066564;28;20270;-74
2023/01/21 11:20:23;;;;;;;10.13;8.10;;;2.70;99.90;;;;;;5049961;28;20686;-74
2023/01/21 11:22:51;;;;;;;9.23;7.40;;;2.70;99.90;;;;;;5057250;28;20374;-74
2023/01/21 11:25:39;;;;;;;9.63;7.63;;;2.70;99.90;;;;;;5069867;28;20294;-74
2023/01/21 11:28:22;;;;;;;9.33;7.97;;;2.70;99.90;;;;;;5070174;28;20215;-74
2023/01/21 11:30:49;;;;;;;9.23;7.83;;;2.70;99.90;;;;;;5070065;28;20195;-73
2023/01/21 11:33:25;;;;;;;9.80;7.83;;;2.80;99.90;;;;;;5058709;28;20238;-74
2023/01/21 11:35:52;;;;;;;8.20;7.17;;;2.80;99.90;;;;;;5049139;28;20214;-74
2023/01/21 11:38:33;;;;;;;9.57;7.17;;;2.80;99.90;;;;;;5059112;28;20659;-74
2023/01/21 11:41:13;;;;;;;8.70;7.77;;;2.80;99.90;;;;;;5070318;28;20286;-74
2023/01/21 11:43:43;;;;;;;8.87;7.77;;;2.90;99.90;;;;;;5068100;28;20637;-74
2023/01/21 11:46:37;;;;;;;8.93;6.87;;;2.90;99.90;;;;;;5065002;28;20293;-74
2023/01/21 11:49:34;;;;;;;11.17;7.30;;;3.00;99.90;;;;;;5089846;28;20678;-74
2023/01/21 11:52:17;;;;;;;8.80;7.20;;;3.00;99.90;;;;;;5090217;28;20199;-76
2023/01/21 11:54:44;;;;;;;7.40;6.67;;;3.00;99.90;;;;;;5089410;28;20775;-74
2023/01/21 11:57:31;;;;;;;8.40;6.77;;;3.10;99.90;;;;;;5051871;28;20292;-74
2023/01/21 12:00:06;;;;;;;10.53;7.10;;;3.10;99.90;;;;;;5049941;28;20192;-74
2023/01/21 12:02:39;;;;;;;7.73;6.87;;;3.10;99.90;;;;;;5048889;28;20223;-74
2023/01/21 12:05:13;;;;;;;8.57;7.50;;;3.10;99.90;;;;;;5049732;28;20200;-74
2023/01/21 12:07:42;;;;;;;7.57;6.87;;;3.10;99.90;;;;;;5082923;28;20231;-74
2023/01/21 12:10:24;;;;;;;7.87;6.87;;;3.10;99.90;;;;;;5049350;28;20231;-74
2023/01/21 12:13:21;;;;;;;10.50;7.33;;;3.10;99.90;;;;;;5050714;28;20193;-74
2023/01/21 12:16:26;;;;;;;9.33;7.40;;;3.10;99.90;;;;;;5070729;28;20195;-74
2023/01/21 12:19:34;;;;;;;8.83;6.80;;;3.10;99.90;;;;;;5089232;28;20250;-74
2023/01/21 12:22:19;;;;;;;7.33;6.57;;;3.10;99.90;;;;;;5012855;28;20233;-74
2023/01/21 12:25:00;;;;;;;7.90;6.10;;;3.10;99.90;;;;;;5066875;28;20291;-74
2023/01/21 12:27:35;;;;;;;8.67;7.13;;;3.10;99.90;;;;;;5069127;28;20227;-74
2023/01/21 12:30:15;;;;;;;7.43;6.33;;;3.10;99.90;;;;;;5069378;28;20282;-74
2023/01/21 12:32:45;;;;;;;7.87;6.50;;;3.10;99.90;;;;;;5068995;28;20311;-74
2023/01/21 12:35:16;;;;;;;7.77;5.90;;;3.10;99.90;;;;;;5081272;28;20632;-74
2023/01/21 12:37:48;;;;;;;7.03;6.37;;;3.10;99.90;;;;;;5069297;28;20230;-74
2023/01/21 12:40:19;;;;;;;10.83;7.50;;;3.10;99.90;;;;;;5068834;28;20314;-74
2023/01/21 12:42:49;;;;;;;6.33;5.73;;;3.10;99.90;;;;;;5068971;28;20308;-74
2023/01/21 12:45:21;;;;;;;7.23;5.93;;;3.20;99.90;;;;;;5068272;28;20192;-74
2023/01/21 12:47:53;;;;;;;6.60;5.90;;;3.10;99.90;;;;;;5068724;28;20198;-74
2023/01/21 12:50:27;;;;;;;6.73;6.00;;;3.10;99.90;;;;;;5067692;28;20326;-74
2023/01/21 12:53:04;;;;;;;8.07;6.10;;;3.20;99.90;;;;;;5068227;28;20282;-74
2023/01/21 12:55:39;;;;;;;7.33;6.43;;;3.20;99.90;;;;;;5064663;28;20287;-74
2023/01/21 12:58:13;;;;;;;6.60;5.90;;;3.20;99.90;;;;;;5048202;28;20202;-74
2023/01/21 13:00:45;;;;;;;6.93;5.80;;;3.20;99.90;;;;;;5048404;28;20194;-74
2023/01/21 13:03:20;;;;;;;6.03;5.47;;;3.20;99.90;;;;;;5048390;28;20220;-74
2023/01/21 13:05:54;;;;;;;6.30;5.20;;;3.20;99.90;;;;;;5067315;28;20270;-74
2023/01/21 13:08:49;;;;;;;5.93;5.10;;;3.20;99.90;;;;;;5068209;28;20318;-74
2023/01/21 13:11:20;;;;;;;5.30;4.80;;;3.20;99.90;;;;;;5066559;28;20234;-74
2023/01/21 13:13:57;;;;;;;7.17;5.40;;;3.20;99.90;;;;;;5068146;28;20663;-73
2023/01/21 13:16:27;;;;;;;6.53;5.47;;;3.20;99.90;;;;;;5074713;28;20290;-74